createdAt,value
2019-05-06T00:00:55.716Z,12.15
2019-05-06T00:03:16.776Z,14.63
2019-05-06T00:05:45.739Z,18.90
2019-05-06T00:08:14.668Z,16.97
2019-05-06T00:10:44.717Z,17.00
2019-05-06T00:13:13.993Z,14.95
2019-05-06T00:15:43.704Z,18.45
2019-05-06T00:18:17.174Z,15.68
2019-05-06T00:20:50.767Z,17.32
2019-05-06T00:26:13.745Z,11.50
2019-05-06T00:28:48.578Z,11.55
2019-05-06T00:31:18.906Z,15.90
2019-05-06T00:33:50.543Z,13.70
2019-05-06T00:36:19.103Z,13.65
2019-05-06T00:38:53.932Z,14.30
2019-05-06T00:41:27.039Z,15.75
2019-05-06T00:43:55.584Z,15.63
2019-05-06T00:46:26.226Z,16.17
2019-05-06T00:48:56.249Z,12.23
2019-05-06T00:51:24.837Z,11.65
2019-05-06T00:54:00.961Z,18.45
2019-05-06T00:56:29.516Z,10.43
2019-05-06T00:58:59.428Z,16.30
2019-05-06T01:01:29.784Z,9.20
2019-05-06T01:03:58.626Z,18.07
2019-05-06T01:06:31.093Z,13.83
2019-05-06T01:08:59.624Z,13.55
2019-05-06T01:11:28.377Z,10.55
2019-05-06T01:14:08.206Z,9.45
2019-05-06T01:16:36.803Z,15.30
2019-05-06T01:19:05.526Z,12.85
2019-05-06T01:21:37.239Z,12.15
2019-05-06T01:24:05.945Z,14.60
2019-05-06T01:26:34.494Z,12.43
2019-05-06T01:29:04.907Z,16.82
2019-05-06T01:31:42.758Z,13.05
2019-05-06T01:34:06.952Z,11.15
2019-05-06T01:36:35.522Z,10.10
2019-05-06T01:39:28.092Z,15.68
2019-05-06T01:42:09.657Z,13.53
2019-05-06T01:44:38.548Z,13.43
2019-05-06T01:47:08.788Z,22.32
2019-05-06T01:49:37.341Z,19.05
2019-05-06T01:52:06.249Z,13.13
2019-05-06T01:54:34.786Z,13.03
2019-05-06T01:57:04.411Z,15.35
2019-05-06T01:59:34.007Z,12.60
2019-05-06T02:02:04.229Z,16.67
2019-05-06T02:04:34.609Z,12.05
2019-05-06T02:07:03.930Z,15.65
2019-05-06T02:09:34.239Z,13.08
2019-05-06T02:12:04.627Z,18.45
2019-05-06T02:14:34.135Z,14.63
2019-05-06T02:17:04.204Z,9.10
2019-05-06T02:19:34.751Z,13.62
2019-05-06T02:22:31.991Z,9.83
2019-05-06T02:25:09.341Z,15.53
2019-05-06T02:27:37.935Z,15.30
2019-05-06T02:30:16.480Z,18.00
2019-05-06T02:32:57.013Z,13.53
2019-05-06T02:35:36.396Z,13.13
2019-05-06T02:38:06.613Z,17.02
2019-05-06T02:40:35.144Z,13.30
2019-05-06T02:43:03.962Z,9.23
2019-05-06T02:45:33.502Z,10.55
2019-05-06T02:48:08.230Z,12.85
2019-05-06T02:50:54.218Z,15.93
2019-05-06T02:53:26.697Z,12.55
2019-05-06T02:55:55.590Z,9.65
2019-05-06T02:58:26.328Z,15.32
2019-05-06T03:00:55.368Z,13.48
2019-05-06T03:03:26.008Z,17.12
2019-05-06T03:05:56.627Z,12.45
2019-05-06T03:08:25.194Z,13.00
2019-05-06T03:10:53.894Z,17.05
2019-05-06T03:13:23.575Z,11.48
2019-05-06T03:15:54.415Z,15.72
2019-05-06T03:18:23.775Z,15.20
2019-05-06T03:21:13.831Z,13.25
2019-05-06T03:23:46.317Z,15.03
2019-05-06T03:26:16.458Z,19.12
2019-05-06T03:28:47.755Z,12.93
2019-05-06T03:31:17.204Z,13.62
2019-05-06T03:34:12.714Z,18.60
2019-05-06T03:36:27.296Z,16.15
2019-05-06T03:38:53.644Z,20.32
2019-05-06T03:41:26.124Z,13.70
2019-05-06T03:43:54.306Z,16.57
2019-05-06T03:46:43.066Z,17.37
2019-05-06T03:49:13.550Z,24.20
2019-05-06T03:51:44.140Z,17.00
2019-05-06T03:54:13.307Z,16.30
2019-05-06T03:56:43.317Z,16.20
2019-05-06T03:59:13.334Z,17.05
2019-05-06T04:01:43.049Z,14.53
2019-05-06T04:04:15.398Z,13.83
2019-05-06T04:06:43.956Z,24.47
2019-05-06T04:09:14.065Z,20.50
2019-05-06T04:11:43.468Z,23.95
2019-05-06T04:14:14.055Z,16.40
2019-05-06T04:16:48.852Z,18.50
2019-05-06T04:19:24.522Z,19.07
2019-05-06T04:22:03.706Z,17.52
2019-05-06T04:24:54.223Z,19.45
2019-05-06T04:27:34.508Z,16.65
2019-05-06T04:30:04.717Z,15.50
2019-05-06T04:32:35.044Z,20.68
2019-05-06T04:35:05.595Z,17.32
2019-05-06T04:37:34.376Z,18.90
2019-05-06T04:40:04.534Z,18.70
2019-05-06T04:42:34.435Z,18.70
2019-05-06T04:45:04.740Z,16.75
2019-05-06T04:47:35.218Z,34.67
2019-05-06T04:50:06.229Z,19.75
2019-05-06T04:52:36.136Z,20.08
2019-05-06T04:55:05.066Z,22.87
2019-05-06T04:57:33.998Z,16.97
2019-05-06T05:00:04.348Z,21.40
2019-05-06T05:02:33.860Z,26.77
2019-05-06T05:05:04.045Z,19.32
2019-05-06T05:07:39.494Z,21.33
2019-05-06T05:10:20.377Z,21.60
2019-05-06T05:13:09.370Z,16.20
2019-05-06T05:15:56.846Z,17.95
2019-05-06T05:18:42.474Z,24.32
2019-05-06T05:21:11.924Z,19.32
2019-05-06T05:23:42.935Z,18.95
2019-05-06T05:26:12.098Z,17.10
2019-05-06T05:28:42.788Z,18.23
2019-05-06T05:31:12.293Z,18.57
2019-05-06T05:33:42.296Z,16.75
2019-05-06T05:36:12.369Z,20.25
2019-05-06T05:38:42.804Z,17.10
2019-05-06T05:41:13.477Z,22.35
2019-05-06T05:44:02.437Z,18.92
2019-05-06T05:46:32.887Z,18.65
2019-05-06T05:49:07.974Z,19.67
2019-05-06T05:51:38.226Z,15.68
2019-05-06T05:54:08.800Z,15.63
2019-05-06T05:56:38.751Z,24.02
2019-05-06T05:59:07.298Z,17.00
2019-05-06T06:01:37.463Z,19.65
2019-05-06T06:04:06.100Z,14.20
2019-05-06T06:06:34.667Z,17.40
2019-05-06T06:09:03.598Z,15.63
2019-05-06T06:11:38.400Z,18.27
2019-05-06T06:14:26.845Z,15.45
2019-05-06T06:17:20.686Z,16.80
2019-05-06T06:19:55.952Z,20.30
2019-05-06T06:22:28.913Z,16.45
2019-05-06T06:24:57.853Z,18.27
2019-05-06T06:27:28.800Z,16.90
2019-05-06T06:29:57.701Z,18.10
2019-05-06T06:32:28.577Z,19.80
2019-05-06T06:35:22.864Z,17.62
2019-05-06T06:38:03.071Z,13.22
2019-05-06T06:40:34.474Z,14.60
2019-05-06T06:43:12.416Z,14.80
2019-05-06T06:45:46.365Z,14.87
2019-05-06T06:48:16.705Z,11.10
2019-05-06T06:50:45.284Z,14.55
2019-05-06T06:53:14.134Z,13.83
2019-05-06T06:55:44.059Z,16.12
2019-05-06T06:58:34.545Z,14.00
2019-05-06T07:01:19.488Z,12.50
2019-05-06T07:03:55.554Z,11.70
2019-05-06T07:06:45.279Z,15.00
2019-05-06T07:09:15.581Z,16.50
2019-05-06T07:11:44.147Z,10.82
2019-05-06T07:14:13.706Z,14.25
2019-05-06T07:16:44.126Z,17.15
2019-05-06T07:19:15.156Z,17.87
2019-05-06T07:21:52.269Z,10.65
2019-05-06T07:24:22.854Z,13.38
2019-05-06T07:26:57.740Z,17.98
2019-05-06T07:29:29.745Z,17.40
2019-05-06T07:32:02.635Z,19.80
2019-05-06T07:34:34.763Z,14.43
2019-05-06T07:37:06.870Z,11.30
2019-05-06T07:39:42.800Z,12.33
2019-05-06T07:42:16.328Z,10.98
2019-05-06T07:45:06.395Z,12.20
2019-05-06T07:47:53.260Z,10.23
2019-05-06T07:50:22.379Z,11.70
2019-05-06T07:53:09.903Z,11.63
2019-05-06T07:55:42.406Z,12.65
2019-05-06T07:58:13.569Z,12.27
2019-05-06T08:00:42.329Z,12.15
2019-05-06T08:03:14.094Z,9.78
2019-05-06T08:05:54.713Z,16.35
2019-05-06T08:08:18.168Z,6.95
2019-05-06T08:10:48.191Z,12.68
2019-05-06T08:13:22.610Z,10.13
2019-05-06T08:15:54.313Z,8.70
2019-05-06T08:18:22.882Z,10.25
2019-05-06T08:20:52.025Z,11.55
2019-05-06T08:23:39.693Z,11.97
2019-05-06T08:26:13.191Z,8.40
2019-05-06T08:28:41.721Z,7.97
2019-05-06T08:31:12.828Z,11.30
2019-05-06T08:33:43.176Z,12.18
2019-05-06T08:36:17.476Z,7.42
2019-05-06T08:38:57.310Z,8.95
2019-05-06T08:41:27.871Z,9.95
2019-05-06T08:43:56.819Z,7.55
2019-05-06T08:46:27.137Z,11.28
2019-05-06T08:48:57.795Z,7.28
2019-05-06T08:51:45.614Z,9.05
2019-05-06T08:54:25.430Z,9.20
2019-05-06T08:56:54.264Z,9.85
2019-05-06T08:59:25.491Z,13.78
2019-05-06T09:01:56.647Z,8.10
2019-05-06T09:04:25.395Z,9.40
2019-05-06T09:06:53.948Z,13.75
2019-05-06T09:09:22.915Z,9.35
2019-05-06T09:11:53.472Z,9.08
2019-05-06T09:14:25.092Z,14.33
2019-05-06T09:16:55.783Z,9.60
2019-05-06T09:19:24.704Z,8.00
2019-05-06T09:21:53.684Z,11.30
2019-05-06T09:24:23.021Z,10.85
2019-05-06T09:27:03.757Z,13.30
2019-05-06T09:29:39.069Z,10.43
2019-05-06T09:32:14.012Z,10.53
2019-05-06T09:34:53.688Z,12.33
2019-05-06T09:37:24.454Z,8.98
2019-05-06T09:39:54.368Z,9.30
2019-05-06T09:42:24.888Z,12.73
2019-05-06T09:44:54.396Z,11.88
2019-05-06T09:47:30.378Z,11.88
2019-05-06T09:50:02.737Z,7.97
2019-05-06T09:52:33.325Z,9.08
2019-05-06T09:55:32.549Z,7.30
2019-05-06T09:58:05.876Z,9.30
2019-05-06T10:00:38.849Z,11.08
2019-05-06T10:03:08.144Z,5.70
2019-05-06T10:05:37.100Z,6.30
2019-05-06T10:08:05.930Z,5.87
2019-05-06T10:10:36.129Z,8.98
2019-05-06T10:13:06.600Z,6.00
2019-05-06T10:15:37.025Z,5.95
2019-05-06T10:18:12.708Z,7.03
2019-05-06T10:20:42.678Z,5.70
2019-05-06T10:23:13.934Z,8.65
2019-05-06T10:25:43.698Z,4.83
2019-05-06T10:28:33.209Z,8.55
2019-05-06T10:31:02.386Z,9.80
2019-05-06T10:33:32.441Z,7.12
2019-05-06T10:36:04.725Z,6.33
2019-05-06T10:39:07.718Z,8.10
2019-05-06T10:41:39.630Z,5.35
2019-05-06T10:44:37.868Z,6.67
2019-05-06T10:47:07.116Z,9.98
2019-05-06T10:49:36.186Z,7.00
2019-05-06T10:52:30.967Z,9.65
2019-05-06T10:55:00.413Z,6.47
2019-05-06T10:57:35.880Z,7.83
2019-05-06T11:00:06.896Z,5.67
2019-05-06T11:02:52.265Z,6.85
2019-05-06T11:05:20.236Z,7.65
2019-05-06T11:07:52.160Z,7.33
2019-05-06T11:10:27.728Z,8.88
2019-05-06T11:12:52.329Z,7.75
2019-05-06T11:15:23.278Z,6.35
2019-05-06T11:17:51.552Z,6.85
2019-05-06T11:20:20.675Z,6.12
2019-05-06T11:22:49.228Z,6.85
2019-05-06T11:25:19.462Z,7.47
2019-05-06T11:27:52.641Z,8.13
2019-05-06T11:30:43.648Z,5.85
2019-05-06T11:33:38.197Z,4.22
2019-05-06T11:36:12.262Z,5.65
2019-05-06T11:38:43.126Z,5.40
2019-05-06T11:41:13.186Z,6.30
2019-05-06T11:43:43.862Z,5.47
2019-05-06T11:46:14.390Z,6.87
2019-05-06T11:48:44.790Z,7.47
2019-05-06T11:51:24.766Z,6.67
2019-05-06T11:53:54.204Z,5.17
2019-05-06T11:56:23.185Z,7.53
2019-05-06T11:58:54.918Z,7.40
2019-05-06T12:01:32.651Z,5.15
2019-05-06T12:04:03.416Z,6.37
2019-05-06T12:06:35.786Z,7.20
2019-05-06T12:09:07.825Z,7.95
2019-05-06T12:11:38.077Z,9.53
2019-05-06T12:14:12.297Z,5.30
2019-05-06T12:16:43.778Z,7.55
2019-05-06T12:19:14.141Z,9.88
2019-05-06T12:21:43.186Z,5.22
2019-05-06T12:24:13.316Z,6.92
2019-05-06T12:26:42.909Z,10.98
2019-05-06T12:29:12.691Z,7.25
2019-05-06T12:31:43.207Z,8.23
2019-05-06T12:34:14.711Z,6.15
2019-05-06T12:36:43.687Z,6.92
2019-05-06T12:39:28.171Z,6.25
2019-05-06T12:42:15.757Z,7.25
2019-05-06T12:44:56.787Z,5.58
2019-05-06T12:47:42.815Z,6.33
2019-05-06T12:50:11.344Z,6.95
2019-05-06T12:52:43.805Z,8.58
2019-05-06T12:55:18.230Z,9.58
2019-05-06T12:57:44.234Z,5.62
2019-05-06T13:00:13.799Z,5.97
2019-05-06T13:02:43.716Z,7.30
2019-05-06T13:05:14.342Z,5.35
2019-05-06T13:07:46.201Z,5.45
2019-05-06T13:10:15.994Z,5.25
2019-05-06T13:12:46.686Z,5.22
2019-05-06T13:15:15.662Z,7.33
2019-05-06T13:17:44.262Z,5.60
2019-05-06T13:20:15.326Z,4.85
2019-05-06T13:23:09.657Z,7.35
2019-05-06T13:25:33.250Z,9.48
2019-05-06T13:28:03.640Z,4.97
2019-05-06T13:30:35.621Z,8.60
2019-05-06T13:33:13.712Z,8.70
2019-05-06T13:35:43.956Z,10.43
2019-05-06T13:38:12.560Z,5.95
2019-05-06T13:40:53.891Z,13.53
2019-05-06T13:43:35.768Z,4.80
2019-05-06T13:46:12.398Z,15.15
2019-05-06T13:48:46.457Z,8.85
2019-05-06T13:51:19.643Z,8.63
2019-05-06T13:53:48.315Z,7.30
2019-05-06T13:56:16.955Z,7.80
2019-05-06T13:58:48.884Z,8.30
2019-05-06T14:01:22.289Z,7.75
2019-05-06T14:03:55.468Z,6.75
2019-05-06T14:06:24.224Z,9.90
2019-05-06T14:08:53.067Z,9.88
2019-05-06T14:11:23.022Z,6.90
2019-05-06T14:13:53.161Z,7.05
2019-05-06T14:16:24.471Z,12.35
2019-05-06T14:18:53.393Z,7.17
2019-05-06T14:21:22.947Z,6.17
2019-05-06T14:23:51.973Z,10.53
2019-05-06T14:26:33.253Z,9.43
2019-05-06T14:29:12.777Z,7.87
2019-05-06T14:31:47.458Z,9.40
2019-05-06T14:34:19.164Z,10.90
2019-05-06T14:36:47.754Z,8.10
2019-05-06T14:39:25.000Z,8.15
2019-05-06T14:41:55.131Z,7.12
2019-05-06T14:44:26.936Z,12.28
2019-05-06T14:47:06.607Z,7.62
2019-05-06T14:49:35.176Z,6.90
2019-05-06T14:52:05.423Z,9.58
2019-05-06T14:54:48.582Z,10.35
2019-05-06T14:57:17.566Z,7.70
2019-05-06T14:59:46.318Z,8.90
2019-05-06T15:02:15.571Z,7.47
2019-05-06T15:04:45.530Z,8.53
2019-05-06T15:07:18.523Z,7.00
2019-05-06T15:10:02.109Z,8.38
2019-05-06T15:12:17.387Z,9.20
2019-05-06T15:14:47.303Z,13.40
2019-05-06T15:17:16.100Z,11.68
2019-05-06T15:19:44.985Z,7.72
2019-05-06T15:22:13.828Z,9.08
2019-05-06T15:24:44.118Z,10.18
2019-05-06T15:27:12.860Z,8.50
2019-05-06T15:29:43.053Z,7.35
2019-05-06T15:32:27.273Z,8.33
2019-05-06T15:35:28.709Z,8.45
2019-05-06T15:38:04.499Z,7.10
2019-05-06T15:40:36.624Z,9.15
2019-05-06T15:43:03.321Z,8.00
2019-05-06T15:45:32.540Z,9.15
2019-05-06T15:48:02.844Z,10.40
2019-05-06T15:50:32.436Z,10.23
2019-05-06T15:53:02.927Z,12.58
2019-05-06T15:55:35.227Z,8.63
2019-05-06T15:58:08.208Z,7.10
2019-05-06T16:00:39.231Z,11.15
2019-05-06T16:03:09.965Z,8.18
2019-05-06T16:05:43.715Z,9.78
2019-05-06T16:08:12.419Z,8.08
2019-05-06T16:10:52.352Z,9.98
2019-05-06T16:13:14.982Z,10.60
2019-05-06T16:15:45.198Z,10.85
2019-05-06T16:18:15.857Z,13.72
2019-05-06T16:20:47.651Z,6.62
2019-05-06T16:23:24.851Z,7.10
2019-05-06T16:25:54.019Z,12.53
2019-05-06T16:28:26.494Z,8.83
2019-05-06T16:30:55.058Z,12.43
2019-05-06T16:33:26.076Z,10.60
2019-05-06T16:35:54.825Z,11.03
2019-05-06T16:38:26.475Z,11.45
2019-05-06T16:41:09.358Z,8.05
2019-05-06T16:43:27.852Z,10.82
2019-05-06T16:45:56.778Z,7.45
2019-05-06T16:48:25.514Z,8.75
2019-05-06T16:50:54.593Z,9.08
2019-05-06T16:53:23.962Z,7.90
2019-05-06T16:56:14.595Z,10.08
2019-05-06T16:58:47.452Z,11.28
2019-05-06T17:01:16.536Z,14.23
2019-05-06T17:03:53.884Z,11.88
2019-05-06T17:06:26.635Z,10.95
2019-05-06T17:08:55.411Z,15.08
2019-05-06T17:11:33.506Z,10.20
2019-05-06T17:13:59.771Z,11.53
2019-05-06T17:16:28.474Z,12.78
2019-05-06T17:19:00.486Z,11.43
2019-05-06T17:21:29.236Z,14.00
2019-05-06T17:23:57.796Z,10.88
2019-05-06T17:26:26.527Z,14.58
2019-05-06T17:29:07.288Z,10.15
2019-05-06T17:31:43.970Z,13.18
2019-05-06T17:34:16.769Z,13.58
2019-05-06T17:36:45.964Z,13.03
2019-05-06T17:39:14.591Z,13.62
2019-05-06T17:41:48.675Z,15.88
2019-05-06T17:44:14.222Z,10.88
2019-05-06T17:47:12.134Z,9.50
2019-05-06T17:49:48.395Z,10.03
2019-05-06T17:52:22.376Z,9.33
2019-05-06T17:54:52.764Z,9.03
2019-05-06T17:57:22.440Z,13.95
2019-05-06T17:59:53.273Z,11.95
2019-05-06T18:02:23.628Z,12.93
2019-05-06T18:04:53.659Z,10.58
2019-05-06T18:07:22.432Z,11.65
2019-05-06T18:09:52.234Z,12.28
2019-05-06T18:12:24.188Z,16.80
2019-05-06T18:14:53.516Z,14.23
2019-05-06T18:17:22.611Z,13.98
2019-05-06T18:19:51.517Z,12.63
2019-05-06T18:22:20.244Z,19.10
2019-05-06T18:24:49.186Z,17.25
2019-05-06T18:27:18.368Z,15.53
2019-05-06T18:29:50.041Z,16.07
2019-05-06T18:32:20.362Z,18.05
2019-05-06T18:34:52.791Z,20.12
2019-05-06T18:37:23.405Z,22.98
2019-05-06T18:39:53.097Z,24.90
2019-05-06T18:42:24.082Z,29.45
2019-05-06T18:44:52.645Z,31.37
2019-05-06T18:47:24.442Z,31.42
2019-05-06T18:49:53.180Z,28.17
2019-05-06T18:52:24.793Z,26.48
2019-05-06T18:54:53.744Z,30.52
2019-05-06T18:57:22.801Z,26.55
2019-05-06T18:59:53.471Z,26.48
2019-05-06T19:02:22.948Z,25.97
2019-05-06T19:04:56.420Z,28.35
2019-05-06T19:07:25.493Z,33.45
2019-05-06T19:09:58.772Z,30.30
2019-05-06T19:12:34.388Z,31.68
2019-05-06T19:14:58.223Z,33.13
2019-05-06T19:17:26.942Z,35.70
2019-05-06T19:20:02.640Z,34.30
2019-05-06T19:22:33.011Z,32.65
2019-05-06T19:25:02.703Z,29.98
2019-05-06T19:27:33.368Z,36.90
2019-05-06T19:30:07.488Z,36.08
2019-05-06T19:32:37.406Z,39.88
2019-05-06T19:35:16.705Z,37.45
2019-05-06T19:37:48.888Z,38.58
2019-05-06T19:40:17.848Z,36.13
2019-05-06T19:42:52.624Z,36.48
2019-05-06T19:45:23.139Z,42.25
2019-05-06T19:47:52.349Z,45.20
2019-05-06T19:50:25.693Z,43.85
2019-05-06T19:52:52.878Z,43.75
2019-05-06T19:55:23.085Z,46.85
2019-05-06T19:57:52.698Z,42.78
2019-05-06T20:00:22.857Z,41.48
2019-05-06T20:02:53.577Z,39.33
2019-05-06T20:05:35.013Z,36.40
2019-05-06T20:08:23.194Z,41.48
2019-05-06T20:11:02.213Z,39.08
2019-05-06T20:13:32.458Z,37.63
2019-05-06T20:16:02.767Z,37.83
2019-05-06T20:18:32.864Z,35.25
2019-05-06T20:21:03.886Z,44.10
2019-05-06T20:23:32.918Z,37.30
2019-05-06T20:26:02.852Z,36.85
2019-05-06T20:28:32.215Z,36.70
2019-05-06T20:31:03.844Z,37.38
2019-05-06T20:33:32.736Z,42.88
2019-05-06T20:36:01.322Z,40.45
2019-05-06T20:38:33.618Z,41.23
2019-05-06T20:41:03.134Z,41.92
2019-05-06T20:43:32.918Z,42.88
2019-05-06T20:46:03.107Z,39.45
2019-05-06T20:48:32.635Z,37.42
2019-05-06T20:51:03.702Z,43.90
2019-05-06T20:53:32.621Z,41.98
2019-05-06T20:56:02.829Z,41.25
2019-05-06T20:58:32.171Z,43.08
2019-05-06T21:01:05.815Z,44.35
2019-05-06T21:06:05.326Z,42.67
2019-05-06T21:08:35.649Z,48.45
2019-05-06T21:11:06.180Z,43.10
2019-05-06T21:13:35.702Z,39.30
2019-05-06T21:16:05.747Z,38.45
2019-05-06T21:18:35.884Z,44.13
2019-05-06T21:21:05.010Z,43.42
2019-05-06T21:23:33.971Z,42.70
2019-05-06T21:26:03.443Z,46.83
2019-05-06T21:28:35.008Z,48.68
2019-05-06T21:31:03.585Z,46.37
2019-05-06T21:33:32.915Z,44.73
2019-05-06T21:36:03.083Z,41.50
2019-05-06T21:38:31.980Z,45.15
2019-05-06T21:41:02.042Z,43.08
2019-05-06T21:43:43.710Z,45.15
2019-05-06T21:46:02.396Z,46.83
2019-05-06T21:48:34.312Z,44.65
2019-05-06T21:51:03.063Z,46.77
2019-05-06T21:53:32.712Z,43.68
2019-05-06T21:56:02.589Z,44.83
2019-05-06T21:58:31.151Z,42.55
2019-05-06T22:01:05.569Z,46.92
2019-05-06T22:03:34.496Z,49.80
2019-05-06T22:06:05.220Z,44.27
2019-05-06T22:08:34.329Z,43.30
2019-05-06T22:11:03.216Z,42.85
2019-05-06T22:13:33.915Z,41.80
2019-05-06T22:16:04.890Z,44.15
2019-05-06T22:18:33.115Z,43.83
2019-05-06T22:21:12.026Z,46.13
2019-05-06T22:24:05.859Z,47.13
2019-05-06T22:26:34.571Z,46.45
2019-05-06T22:29:07.126Z,45.23
2019-05-06T22:31:35.695Z,46.55
2019-05-06T22:34:04.920Z,49.10
2019-05-06T22:36:33.676Z,49.18
2019-05-06T22:39:05.390Z,49.88
2019-05-06T22:41:35.512Z,46.92
2019-05-06T22:44:13.261Z,52.15
2019-05-06T22:46:35.079Z,47.00
2019-05-06T22:49:05.699Z,44.42
2019-05-06T22:51:37.586Z,36.03
2019-05-06T22:54:06.155Z,35.98
2019-05-06T22:56:36.808Z,38.38
2019-05-06T22:59:05.715Z,40.00
2019-05-06T23:01:54.721Z,38.67
2019-05-06T23:04:26.841Z,38.30
2019-05-06T23:06:55.721Z,39.53
2019-05-06T23:09:24.959Z,42.10
2019-05-06T23:11:53.736Z,43.75
2019-05-06T23:14:31.177Z,41.55
2019-05-06T23:16:54.274Z,41.33
2019-05-06T23:19:24.596Z,39.83
2019-05-06T23:21:53.411Z,40.85
2019-05-06T23:24:22.889Z,42.75
2019-05-06T23:26:54.292Z,37.23
2019-05-06T23:29:24.087Z,40.28
2019-05-06T23:31:56.408Z,44.10
2019-05-06T23:34:26.677Z,42.48
2019-05-06T23:37:30.797Z,42.93
2019-05-06T23:40:42.833Z,39.78
2019-05-06T23:43:47.507Z,43.52
2019-05-06T23:46:52.796Z,40.48
2019-05-06T23:49:57.769Z,40.23
2019-05-06T23:53:03.077Z,47.33
2019-05-06T23:56:08.153Z,41.30
2019-05-06T23:58:38.817Z,38.98
